Time;durP1;ratioP1;P1;durP2;ratioP2;P2;SDS_P1;SDS_P2;PMS_P1;PMS_P2;Temp;Humidity;BMP_temperature;BMP_pressure;BME280_temperature;BME280_humidity;BME280_pressure;Samples;Min_cycle;Max_cycle;Signal;HPM_P1;HPM_P2
2022/05/30 00:01:06;;;;;;;5.07;4.40;;;;;;;;;;10475910;28;20040;-80
2022/05/30 00:06:13;;;;;;;7.05;5.32;;;;;;;;;;10475540;28;20052;-78
2022/05/30 00:11:14;;;;;;;6.95;5.38;;;;;;;;;;10465373;28;20337;-80
2022/05/30 00:16:16;;;;;;;7.93;5.32;;;;;;;;;;10466324;28;20080;-80
2022/05/30 00:21:17;;;;;;;6.05;5.00;;;;;;;;;;10449639;28;20419;-79
2022/05/30 00:26:18;;;;;;;8.15;4.93;;;;;;;;;;10449206;28;20094;-79
2022/05/30 00:31:19;;;;;;;5.50;4.53;;;;;;;;;;10470184;28;20106;-78
2022/05/30 00:36:19;;;;;;;7.63;5.22;;;;;;;;;;10460168;28;20029;-78
2022/05/30 00:41:20;;;;;;;5.43;4.50;;;;;;;;;;10446718;28;20044;-79
2022/05/30 00:46:20;;;;;;;8.37;5.30;;;;;;;;;;10485118;28;20067;-80
2022/05/30 00:51:26;;;;;;;6.68;5.45;;;;;;;;;;10451015;28;20052;-78
2022/05/30 00:56:37;;;;;;;7.00;5.25;;;;;;;;;;10465545;28;20393;-81
2022/05/30 01:01:38;;;;;;;6.30;5.20;;;;;;;;;;10445663;28;20033;-79
2022/05/30 01:06:39;;;;;;;6.90;4.97;;;;;;;;;;10435451;28;20430;-79
2022/05/30 01:11:51;;;;;;;9.85;6.15;;;;;;;;;;10474405;28;20132;-80
2022/05/30 01:16:52;;;;;;;6.15;5.20;;;;;;;;;;10476377;28;20052;-77
2022/05/30 01:21:54;;;;;;;7.82;5.85;;;;;;;;;;10445013;28;20053;-78
2022/05/30 01:27:10;;;;;;;6.40;5.80;;;;;;;;;;10449988;28;20125;-79
2022/05/30 01:32:16;;;;;;;7.43;6.25;;;;;;;;;;10489953;28;20044;-79
2022/05/30 01:37:18;;;;;;;6.50;5.90;;;;;;;;;;10454329;28;20053;-79
2022/05/30 01:42:18;;;;;;;10.50;5.57;;;;;;;;;;10439848;28;20054;-80
2022/05/30 01:47:20;;;;;;;8.13;6.53;;;;;;;;;;10496729;28;20287;-80
2022/05/30 01:52:21;;;;;;;8.38;6.70;;;;;;;;;;10481782;28;20110;-84
2022/05/30 01:57:21;;;;;;;6.82;6.10;;;;;;;;;;10486183;28;20060;-79
2022/05/30 02:02:43;;;;;;;7.68;6.20;;;;;;;;;;10512325;28;20430;-80
2022/05/30 02:07:45;;;;;;;7.95;6.60;;;;;;;;;;10497921;28;20040;-80
2022/05/30 02:12:51;;;;;;;7.00;5.93;;;;;;;;;;10434526;28;20094;-82
2022/05/30 02:17:54;;;;;;;6.50;5.57;;;;;;;;;;10488980;28;20041;-80
2022/05/30 02:22:54;;;;;;;8.20;5.85;;;;;;;;;;10484504;28;20101;-79
2022/05/30 02:27:55;;;;;;;7.87;5.93;;;;;;;;;;10460288;28;20041;-79
2022/05/30 02:36:38;;;;;;;8.90;5.80;;;;;;;;;;10481821;28;20356;-79
2022/05/30 02:38:17;;;;;;;6.45;5.50;;;;;;;;;;10441253;28;20130;-80
2022/05/30 02:43:39;;;;;;;7.22;6.03;;;;;;;;;;10452799;28;20049;-79
2022/05/30 02:48:39;;;;;;;;;;;;;;;;;;10472637;28;20123;-80
2022/05/30 02:53:41;;;;;;;6.25;5.65;;;;;;;;;;10468100;28;20423;-81
2022/05/30 02:59:01;;;;;;;7.63;5.95;;;;;;;;;;10446836;28;20060;-81
2022/05/30 03:04:08;;;;;;;7.93;6.80;;;;;;;;;;10495473;28;20033;-81
2022/05/30 03:09:09;;;;;;;7.47;6.05;;;;;;;;;;10468965;28;20089;-83
2022/05/30 03:14:31;;;;;;;6.60;5.70;;;;;;;;;;10445321;28;20045;-81
2022/05/30 03:19:32;;;;;;;8.60;6.28;;;;;;;;;;10489866;28;20083;-81
2022/05/30 03:24:37;;;;;;;8.70;6.22;;;;;;;;;;10457447;28;20067;-82
2022/05/30 03:29:38;;;;;;;7.60;6.20;;;;;;;;;;10476210;28;20063;-80
2022/05/30 03:34:38;;;;;;;8.53;6.70;;;;;;;;;;10466958;28;20060;-79
2022/05/30 03:39:39;;;;;;;5.50;4.88;;;;;;;;;;10428277;28;20362;-79
2022/05/30 03:45:00;;;;;;;7.78;6.70;;;;;;;;;;10467306;28;20053;-80
2022/05/30 03:50:00;;;;;;;7.53;6.50;;;;;;;;;;10461751;28;20095;-78
2022/05/30 03:55:08;;;;;;;7.38;6.35;;;;;;;;;;10472251;28;20500;-79
2022/05/30 04:00:13;;;;;;;7.82;6.35;;;;;;;;;;10465630;28;20021;-82
2022/05/30 04:05:17;;;;;;;8.88;6.78;;;;;;;;;;10474934;28;20588;-81
2022/05/30 04:10:18;;;;;;;8.90;6.30;;;;;;;;;;10490000;28;20053;-79
2022/05/30 04:15:41;;;;;;;7.80;5.78;;;;;;;;;;10467769;28;20400;-79
2022/05/30 04:20:41;;;;;;;8.20;6.20;;;;;;;;;;10452564;28;20127;-79
2022/05/30 04:25:41;;;;;;;8.25;6.70;;;;;;;;;;10472339;28;20140;-80
2022/05/30 04:30:43;;;;;;;7.80;6.50;;;;;;;;;;10459566;28;20043;-79
2022/05/30 04:35:43;;;;;;;8.98;6.90;;;;;;;;;;10485097;28;20519;-78
2022/05/30 04:40:44;;;;;;;8.32;6.55;;;;;;;;;;10490377;28;20821;-78
2022/05/30 04:46:22;;;;;;;8.90;6.88;;;;;;;;;;10469184;28;20121;-77
2022/05/30 04:51:25;;;;;;;10.02;7.65;;;;;;;;;;10428606;28;20050;-79
2022/05/30 04:56:27;;;;;;;11.68;8.80;;;;;;;;;;10463802;28;20055;-79
2022/05/30 05:01:49;;;;;;;11.02;7.97;;;;;;;;;;10505456;28;20049;-83
2022/05/30 05:06:50;;;;;;;14.87;9.67;;;;;;;;;;10475498;28;20123;-78
2022/05/30 05:11:51;;;;;;;20.67;11.40;;;;;;;;;;10456858;28;20064;-78
2022/05/30 05:17:12;;;;;;;14.10;10.20;;;;;;;;;;10426198;28;20033;-78
2022/05/30 05:22:14;;;;;;;18.75;12.13;;;;;;;;;;10471362;28;20045;-79
2022/05/30 05:27:15;;;;;;;15.85;11.23;;;;;;;;;;10486617;28;20059;-80
2022/05/30 05:32:18;;;;;;;15.98;9.95;;;;;;;;;;10499611;28;20153;-80
2022/05/30 05:37:19;;;;;;;18.77;11.73;;;;;;;;;;10455228;28;20237;-80
2022/05/30 05:42:24;;;;;;;13.93;10.70;;;;;;;;;;10459436;28;20083;-77
2022/05/30 05:47:26;;;;;;;15.80;10.77;;;;;;;;;;10451215;28;20120;-77
2022/05/30 05:52:30;;;;;;;16.70;12.27;;;;;;;;;;10467127;28;20478;-78
2022/05/30 05:57:35;;;;;;;16.95;10.63;;;;;;;;;;10448369;28;20048;-77
2022/05/30 06:02:38;;;;;;;13.25;10.10;;;;;;;;;;10457595;28;20121;-75
2022/05/30 06:07:39;;;;;;;14.45;10.18;;;;;;;;;;10428716;28;20049;-79
2022/05/30 06:12:52;;;;;;;12.65;9.25;;;;;;;;;;10454344;28;20036;-80
2022/05/30 06:17:53;;;;;;;14.50;10.13;;;;;;;;;;10478254;28;20130;-78
2022/05/30 06:22:55;;;;;;;10.90;8.52;;;;;;;;;;10467547;28;20451;-77
2022/05/30 06:28:34;;;;;;;11.73;10.05;;;;;;;;;;10431580;28;20063;-79
2022/05/30 06:33:42;;;;;;;12.30;9.30;;;;;;;;;;10454475;28;20037;-78
2022/05/30 06:38:47;;;;;;;13.00;9.13;;;;;;;;;;10465781;28;20040;-84
2022/05/30 06:43:57;;;;;;;12.40;10.52;;;;;;;;;;10464749;28;20438;-80
2022/05/30 06:49:16;;;;;;;11.02;8.80;;;;;;;;;;10468286;28;20029;-79
2022/05/30 06:54:26;;;;;;;12.07;8.88;;;;;;;;;;10459034;28;20033;-78
2022/05/30 06:59:26;;;;;;;11.32;8.27;;;;;;;;;;10472998;28;20064;-79
2022/05/30 07:04:31;;;;;;;8.57;6.90;;;;;;;;;;10465166;28;20136;-81
2022/05/30 07:09:50;;;;;;;9.43;8.43;;;;;;;;;;10484915;28;20040;-81
2022/05/30 07:15:06;;;;;;;10.73;9.32;;;;;;;;;;10483959;28;20742;-80
2022/05/30 07:20:08;;;;;;;10.30;8.88;;;;;;;;;;10440785;28;20080;-81
2022/05/30 07:25:27;;;;;;;10.90;8.50;;;;;;;;;;10472769;28;20090;-81
2022/05/30 07:30:48;;;;;;;9.43;7.30;;;;;;;;;;10404028;28;20041;-81
2022/05/30 07:36:08;;;;;;;9.68;6.97;;;;;;;;;;10457757;28;20044;-80
2022/05/30 07:41:38;;;;;;;11.38;7.28;;;;;;;;;;10491031;28;20045;-80
2022/05/30 07:47:01;;;;;;;11.13;8.05;;;;;;;;;;10469262;28;20048;-79
2022/05/30 07:52:24;;;;;;;9.68;7.78;;;;;;;;;;10463625;28;20053;-80
2022/05/30 08:03:11;;;;;;;7.95;6.53;;;;;;;;;;10450837;28;20099;-79
2022/05/30 08:08:14;;;;;;;8.45;7.20;;;;;;;;;;10423592;28;20392;-73
2022/05/30 08:13:23;;;;;;;8.95;6.30;;;;;;;;;;10433446;28;20465;-72
2022/05/30 08:18:30;;;;;;;8.32;6.47;;;;;;;;;;10479116;28;20040;-72
2022/05/30 08:23:33;;;;;;;8.13;5.68;;;;;;;;;;10452520;28;20136;-72
2022/05/30 08:28:36;;;;;;;7.45;5.43;;;;;;;;;;10439583;28;20131;-73
2022/05/30 08:33:38;;;;;;;3.60;3.30;;;;;;;;;;10444995;28;20032;-71
2022/05/30 08:41:46;;;;;;;8.75;4.78;;;;;;;;;;10460708;28;20076;-73
2022/05/30 08:44:19;;;;;;;6.63;4.60;;;;;;;;;;10432605;28;20049;-72
2022/05/30 08:49:53;;;;;;;12.35;6.47;;;;;;;;;;10454102;28;20041;-74
2022/05/30 08:54:54;;;;;;;10.05;4.85;;;;;;;;;;10445819;28;20055;-74
2022/05/30 09:00:11;;;;;;;3.10;2.50;;;;;;;;;;10435074;28;20063;-74
2022/05/30 09:05:38;;;;;;;4.72;2.55;;;;;;;;;;10450008;28;20071;-81
2022/05/30 09:10:45;;;;;;;4.05;2.63;;;;;;;;;;10430193;28;20136;-78
2022/05/30 09:15:57;;;;;;;3.20;2.85;;;;;;;;;;10438520;28;20464;-77
2022/05/30 09:20:58;;;;;;;4.27;2.87;;;;;;;;;;10444072;28;20132;-77
2022/05/30 09:26:03;;;;;;;3.70;2.75;;;;;;;;;;10458024;28;20072;-78
2022/05/30 09:31:19;;;;;;;3.97;2.20;;;;;;;;;;10484410;28;20046;-76
2022/05/30 09:36:49;;;;;;;3.90;1.90;;;;;;;;;;10428617;28;20037;-78
2022/05/30 09:42:23;;;;;;;4.50;2.20;;;;;;;;;;10468430;28;20048;-78
2022/05/30 09:47:29;;;;;;;3.20;1.67;;;;;;;;;;10450610;28;20329;-79
2022/05/30 09:52:53;;;;;;;3.20;2.10;;;;;;;;;;10460672;28;20465;-78
2022/05/30 09:58:00;;;;;;;3.63;2.55;;;;;;;;;;10477853;28;20063;-79
2022/05/30 10:03:34;;;;;;;2.90;2.22;;;;;;;;;;10475543;28;20260;-79
2022/05/30 10:09:08;;;;;;;3.85;2.85;;;;;;;;;;10454459;28;20378;-76
2022/05/30 10:14:22;;;;;;;2.50;1.92;;;;;;;;;;10473410;28;20063;-77
2022/05/30 10:19:46;;;;;;;3.47;2.20;;;;;;;;;;10461353;28;20036;-78
2022/05/30 10:31:07;;;;;;;3.00;2.65;;;;;;;;;;10299943;28;20186;-77
2022/05/30 10:36:39;;;;;;;2.20;1.92;;;;;;;;;;10445449;28;20503;-77
2022/05/30 10:41:47;;;;;;;1.92;1.73;;;;;;;;;;10449947;28;20148;-77
2022/05/30 10:46:54;;;;;;;3.92;2.10;;;;;;;;;;10492170;28;20074;-76
2022/05/30 10:52:05;;;;;;;3.28;2.10;;;;;;;;;;10471055;28;20483;-77
2022/05/30 10:57:12;;;;;;;2.50;2.20;;;;;;;;;;10445722;28;20411;-77
2022/05/30 11:02:29;;;;;;;3.15;2.35;;;;;;;;;;10438649;28;20063;-77
2022/05/30 11:07:32;;;;;;;3.35;2.58;;;;;;;;;;10464519;28;20052;-78
2022/05/30 11:12:39;;;;;;;3.22;2.17;;;;;;;;;;10454935;28;20065;-78
2022/05/30 11:17:58;;;;;;;1.98;1.80;;;;;;;;;;10449851;28;20079;-78
2022/05/30 11:23:31;;;;;;;1.90;1.48;;;;;;;;;;10424011;28;20055;-78
2022/05/30 11:28:35;;;;;;;3.75;3.08;;;;;;;;;;10482220;28;20125;-78
2022/05/30 11:33:35;;;;;;;3.50;2.00;;;;;;;;;;10472384;28;20102;-76
2022/05/30 11:38:46;;;;;;;2.00;1.73;;;;;;;;;;10492018;28;20105;-79
2022/05/30 11:44:08;;;;;;;5.07;2.22;;;;;;;;;;10463197;28;20290;-80
2022/05/30 11:49:23;;;;;;;4.05;2.03;;;;;;;;;;10462430;28;20044;-81
2022/05/30 11:54:32;;;;;;;2.47;2.10;;;;;;;;;;10474435;28;20044;-78
2022/05/30 11:59:56;;;;;;;2.60;2.00;;;;;;;;;;10453629;28;20068;-79
2022/05/30 12:05:14;;;;;;;2.47;2.00;;;;;;;;;;10484512;28;20125;-79
2022/05/30 12:10:18;;;;;;;3.88;2.15;;;;;;;;;;10470728;28;20198;-79
2022/05/30 12:15:23;;;;;;;4.05;1.92;;;;;;;;;;10477662;28;20040;-78
2022/05/30 12:26:00;;;;;;;2.28;2.08;;;;;;;;;;10446661;28;20056;-77
2022/05/30 12:31:04;;;;;;;1.80;1.60;;;;;;;;;;10454056;28;20357;-78
2022/05/30 12:36:10;;;;;;;2.53;1.60;;;;;;;;;;10437059;28;20063;-78
2022/05/30 12:41:26;;;;;;;2.15;1.80;;;;;;;;;;10444817;28;20052;-80
2022/05/30 12:46:28;;;;;;;2.58;1.67;;;;;;;;;;10447573;28;20052;-79
2022/05/30 12:51:39;;;;;;;2.90;1.85;;;;;;;;;;10465433;28;20139;-79
2022/05/30 12:56:41;;;;;;;3.05;1.70;;;;;;;;;;10484551;28;20048;-80
2022/05/30 13:01:44;;;;;;;2.13;1.63;;;;;;;;;;10464208;28;20051;-78
2022/05/30 13:06:52;;;;;;;2.05;1.67;;;;;;;;;;10474280;28;20053;-78
2022/05/30 13:11:52;;;;;;;3.08;1.98;;;;;;;;;;10470133;28;20048;-79
2022/05/30 13:16:58;;;;;;;2.38;2.13;;;;;;;;;;10456259;28;20117;-78
2022/05/30 13:21:59;;;;;;;1.98;1.70;;;;;;;;;;10477732;28;20070;-75
2022/05/30 13:27:00;;;;;;;1.90;1.65;;;;;;;;;;10462247;28;20049;-75
2022/05/30 13:32:03;;;;;;;2.47;1.80;;;;;;;;;;10465016;28;20144;-77
2022/05/30 13:37:04;;;;;;;1.80;1.70;;;;;;;;;;10445275;28;20059;-76
2022/05/30 13:42:05;;;;;;;3.40;2.20;;;;;;;;;;10462267;28;20055;-74
2022/05/30 13:47:13;;;;;;;2.97;2.10;;;;;;;;;;10457973;28;20052;-75
2022/05/30 13:52:15;;;;;;;1.98;1.75;;;;;;;;;;10446333;28;20299;-73
2022/05/30 13:57:15;;;;;;;2.38;1.70;;;;;;;;;;10447922;28;20087;-72
2022/05/30 14:02:17;;;;;;;1.70;1.60;;;;;;;;;;10464698;28;20143;-75
2022/05/30 14:07:18;;;;;;;2.75;1.80;;;;;;;;;;10469166;28;20036;-74
2022/05/30 14:12:20;;;;;;;4.00;2.20;;;;;;;;;;10454830;28;20080;-78
2022/05/30 14:17:24;;;;;;;1.85;1.70;;;;;;;;;;10468832;28;20048;-70
2022/05/30 14:22:25;;;;;;;2.97;1.88;;;;;;;;;;10454200;28;20352;-70
2022/05/30 14:27:30;;;;;;;3.13;2.15;;;;;;;;;;10440016;28;20045;-71
2022/05/30 14:32:35;;;;;;;3.85;2.08;;;;;;;;;;10457902;28;20090;-71
2022/05/30 14:37:59;;;;;;;4.20;1.80;;;;;;;;;;10438106;28;20149;-70
2022/05/30 14:43:00;;;;;;;3.03;1.60;;;;;;;;;;10453397;28;20615;-71
2022/05/30 14:48:05;;;;;;;9.48;6.72;;;;;;;;;;10465990;28;20040;-75
2022/05/30 14:53:06;;;;;;;2.20;1.70;;;;;;;;;;10455056;28;20045;-75
2022/05/30 14:58:14;;;;;;;2.60;1.70;;;;;;;;;;10451200;28;20033;-73
2022/05/30 15:08:34;;;;;;;6.63;3.60;;;;;;;;;;10476248;28;20225;-73
2022/05/30 15:13:34;;;;;;;6.93;5.13;;;;;;;;;;10453397;28;20481;-75
2022/05/30 15:18:34;;;;;;;2.10;1.60;;;;;;;;;;10468274;28;20044;-74
2022/05/30 15:23:35;;;;;;;2.43;1.70;;;;;;;;;;10460269;28;20135;-75
2022/05/30 15:28:36;;;;;;;2.65;1.60;;;;;;;;;;10464169;28;20091;-74
2022/05/30 15:33:37;;;;;;;1.58;1.48;;;;;;;;;;10469842;28;20093;-74
2022/05/30 15:38:37;;;;;;;1.90;1.73;;;;;;;;;;10475231;28;20045;-75
2022/05/30 15:43:37;;;;;;;2.50;1.57;;;;;;;;;;10455117;28;20475;-75
2022/05/30 15:48:39;;;;;;;2.50;1.80;;;;;;;;;;10452822;28;20044;-75
2022/05/30 15:59:00;;;;;;;2.35;1.65;;;;;;;;;;10474258;28;20440;-74
2022/05/30 16:04:03;;;;;;;1.70;1.60;;;;;;;;;;10468651;28;20059;-74
2022/05/30 16:09:06;;;;;;;2.60;1.30;;;;;;;;;;10472915;28;20033;-76
2022/05/30 16:14:06;;;;;;;1.67;1.33;;;;;;;;;;10476368;28;20036;-74
2022/05/30 16:19:07;;;;;;;1.67;1.57;;;;;;;;;;10480222;28;20037;-74
2022/05/30 16:24:07;;;;;;;2.42;1.40;;;;;;;;;;10463955;28;20355;-74
2022/05/30 16:29:07;;;;;;;7.22;4.95;;;;;;;;;;10470937;28;20089;-74
2022/05/30 16:34:08;;;;;;;1.40;1.30;;;;;;;;;;10463297;28;20056;-74
2022/05/30 16:39:09;;;;;;;2.60;1.33;;;;;;;;;;10477446;28;20040;-75
2022/05/30 16:44:14;;;;;;;2.30;1.20;;;;;;;;;;10466892;28;20467;-74
2022/05/30 16:49:15;;;;;;;1.55;1.40;;;;;;;;;;10484299;28;20159;-73
2022/05/30 16:54:16;;;;;;;3.05;1.50;;;;;;;;;;10481408;28;20489;-73
2022/05/30 16:59:17;;;;;;;1.75;1.20;;;;;;;;;;10470554;28;20041;-74
2022/05/30 17:04:17;;;;;;;1.98;1.48;;;;;;;;;;10470614;28;20053;-74
2022/05/30 17:09:20;;;;;;;2.30;2.10;;;;;;;;;;10486982;28;20040;-75
2022/05/30 17:14:20;;;;;;;1.33;1.17;;;;;;;;;;10488179;28;20052;-74
2022/05/30 17:19:22;;;;;;;1.90;1.33;;;;;;;;;;10484521;28;20044;-73
2022/05/30 17:24:22;;;;;;;2.33;1.25;;;;;;;;;;10471833;28;20128;-75
2022/05/30 17:29:24;;;;;;;2.53;1.30;;;;;;;;;;10471416;28;20044;-76
2022/05/30 17:34:24;;;;;;;1.40;1.20;;;;;;;;;;10463138;28;20056;-76
2022/05/30 17:39:29;;;;;;;2.40;1.23;;;;;;;;;;10466646;28;20044;-75
2022/05/30 17:44:29;;;;;;;1.10;1.00;;;;;;;;;;10443064;28;20072;-72
2022/05/30 17:49:36;;;;;;;2.63;1.10;;;;;;;;;;10448441;28;20045;-73
2022/05/30 17:54:38;;;;;;;1.70;1.30;;;;;;;;;;10451649;28;20045;-74
2022/05/30 17:59:38;;;;;;;2.97;1.80;;;;;;;;;;10473757;28;20051;-75
2022/05/30 18:04:43;;;;;;;1.88;1.52;;;;;;;;;;10453323;28;20048;-75
2022/05/30 18:10:04;;;;;;;1.92;1.45;;;;;;;;;;10475006;28;20055;-74
2022/05/30 18:15:07;;;;;;;3.40;1.58;;;;;;;;;;10457869;28;20061;-78
2022/05/30 18:20:17;;;;;;;4.38;3.35;;;;;;;;;;10466168;28;20611;-75
2022/05/30 18:25:24;;;;;;;2.33;1.48;;;;;;;;;;10466782;28;20504;-75
2022/05/30 18:30:29;;;;;;;2.03;1.55;;;;;;;;;;10469917;28;20037;-76
2022/05/30 18:35:32;;;;;;;2.42;1.30;;;;;;;;;;10468793;28;20472;-76
2022/05/30 18:40:55;;;;;;;1.45;1.35;;;;;;;;;;10471244;28;20071;-78
2022/05/30 18:45:58;;;;;;;1.42;1.33;;;;;;;;;;10457602;28;20045;-76
2022/05/30 18:50:58;;;;;;;2.40;1.20;;;;;;;;;;10457731;28;20044;-77
2022/05/30 18:56:02;;;;;;;2.27;1.17;;;;;;;;;;10461855;28;20048;-79
2022/05/30 19:01:03;;;;;;;3.40;2.28;;;;;;;;;;10471244;28;20864;-77
2022/05/30 19:06:05;;;;;;;2.58;1.70;;;;;;;;;;10467162;28;20052;-76
2022/05/30 19:11:05;;;;;;;2.03;1.83;;;;;;;;;;10482047;28;20052;-76
2022/05/30 19:21:25;;;;;;;2.22;1.67;;;;;;;;;;10470794;28;20032;-77
2022/05/30 19:26:25;;;;;;;3.28;1.80;;;;;;;;;;10455134;28;20041;-77
2022/05/30 19:31:26;;;;;;;2.50;1.73;;;;;;;;;;10463580;28;20083;-77
2022/05/30 19:36:26;;;;;;;1.50;1.38;;;;;;;;;;10464424;28;20044;-78
2022/05/30 19:41:27;;;;;;;3.70;2.53;;;;;;;;;;10460191;28;20126;-75
2022/05/30 19:46:30;;;;;;;3.75;2.05;;;;;;;;;;10455797;28;20072;-76
2022/05/30 19:51:31;;;;;;;2.67;2.05;;;;;;;;;;10480998;28;20105;-78
2022/05/30 19:56:33;;;;;;;2.13;1.80;;;;;;;;;;10465235;28;20041;-79
2022/05/30 20:01:34;;;;;;;2.40;1.90;;;;;;;;;;10483689;28;20041;-76
2022/05/30 20:06:34;;;;;;;2.85;2.30;;;;;;;;;;10488556;28;20049;-77
2022/05/30 20:11:38;;;;;;;1.70;1.40;;;;;;;;;;10477199;28;20044;-78
2022/05/30 20:16:41;;;;;;;1.83;1.60;;;;;;;;;;10477212;28;20052;-76
2022/05/30 20:21:44;;;;;;;1.83;1.70;;;;;;;;;;10456573;28;20044;-76
2022/05/30 20:26:44;;;;;;;2.80;2.50;;;;;;;;;;10437202;28;20066;-76
2022/05/30 20:31:45;;;;;;;13.70;6.00;;;;;;;;;;10470315;28;20221;-78
2022/05/30 20:36:45;;;;;;;4.50;2.80;;;;;;;;;;10469317;28;20286;-76
2022/05/30 20:47:07;;;;;;;5.05;2.90;;;;;;;;;;10465892;28;20483;-77
2022/05/30 20:52:09;;;;;;;3.22;2.45;;;;;;;;;;10486524;28;20040;-78
2022/05/30 20:57:10;;;;;;;5.80;2.80;;;;;;;;;;10464969;28;20036;-78
2022/05/30 21:02:11;;;;;;;5.28;3.40;;;;;;;;;;10483662;28;20055;-77
2022/05/30 21:07:13;;;;;;;6.50;3.97;;;;;;;;;;10447561;28;20064;-76
2022/05/30 21:12:14;;;;;;;5.20;3.53;;;;;;;;;;10483851;28;20420;-76
2022/05/30 21:17:25;;;;;;;4.13;3.10;;;;;;;;;;10491624;28;20052;-78
2022/05/30 21:22:25;;;;;;;3.47;2.83;;;;;;;;;;10478445;28;20131;-76
2022/05/30 21:27:26;;;;;;;2.75;2.50;;;;;;;;;;10480463;28;20074;-76
2022/05/30 21:32:46;;;;;;;5.07;3.90;;;;;;;;;;10482598;28;20128;-77
2022/05/30 21:37:46;;;;;;;5.22;4.10;;;;;;;;;;10488872;28;20041;-77
2022/05/30 21:42:47;;;;;;;6.13;4.40;;;;;;;;;;10449285;28;20593;-76
2022/05/30 21:47:48;;;;;;;6.90;4.45;;;;;;;;;;10472220;28;20040;-76
2022/05/30 21:52:49;;;;;;;3.58;3.00;;;;;;;;;;10477409;28;20044;-77
2022/05/30 21:57:54;;;;;;;2.97;2.37;;;;;;;;;;10472846;28;20040;-77
2022/05/30 22:02:55;;;;;;;2.83;2.35;;;;;;;;;;10473481;28;20453;-77
2022/05/30 22:07:55;;;;;;;3.88;2.90;;;;;;;;;;10448941;28;20441;-75
2022/05/30 22:12:56;;;;;;;3.63;2.57;;;;;;;;;;10464523;28;20040;-76
2022/05/30 22:17:56;;;;;;;3.17;2.40;;;;;;;;;;10470816;28;20290;-75
2022/05/30 22:22:57;;;;;;;3.63;2.40;;;;;;;;;;10469666;28;20057;-77
2022/05/30 22:27:58;;;;;;;2.95;2.60;;;;;;;;;;10459479;28;20041;-75
2022/05/30 22:32:59;;;;;;;3.08;2.40;;;;;;;;;;10443694;28;20381;-77
2022/05/30 22:37:59;;;;;;;2.83;2.38;;;;;;;;;;10455834;28;20032;-76
2022/05/30 22:43:00;;;;;;;2.70;2.30;;;;;;;;;;10464849;28;20074;-75
2022/05/30 22:48:01;;;;;;;3.30;2.40;;;;;;;;;;10459562;28;20065;-76
2022/05/30 22:53:01;;;;;;;2.78;2.58;;;;;;;;;;10447947;28;20115;-75
2022/05/30 22:58:02;;;;;;;2.87;2.60;;;;;;;;;;10455860;28;20684;-76
2022/05/30 23:03:02;;;;;;;3.92;2.70;;;;;;;;;;10445655;28;20064;-76
2022/05/30 23:08:04;;;;;;;3.03;2.60;;;;;;;;;;10467268;28;20033;-76
2022/05/30 23:13:06;;;;;;;4.10;2.30;;;;;;;;;;10457504;28;20286;-76
2022/05/30 23:18:07;;;;;;;3.47;2.42;;;;;;;;;;10459318;28;20446;-77
2022/05/30 23:23:08;;;;;;;3.15;2.78;;;;;;;;;;10467562;28;20118;-75
2022/05/30 23:28:09;;;;;;;4.03;2.60;;;;;;;;;;10456011;28;20055;-78
2022/05/30 23:33:11;;;;;;;3.10;2.30;;;;;;;;;;10461631;28;20048;-77
2022/05/30 23:38:12;;;;;;;4.80;2.70;;;;;;;;;;10447179;28;20044;-77
2022/05/30 23:48:31;;;;;;;2.70;2.50;;;;;;;;;;10480424;28;20271;-76
2022/05/30 23:53:32;;;;;;;3.38;2.40;;;;;;;;;;10476333;28;20132;-76
2022/05/30 23:58:32;;;;;;;3.00;2.50;;;;;;;;;;10475365;28;20062;-77
